Rock Canyon, New Mexico
Current Conditions -  °F | °C
As of 8:53 PM on Wednesday 26 Nov 2014 (Local Time) from KTCS Reporting Station
Clear Clear  
Wind Chill: 39°   Ceiling: Unl
Heat Index: 43°   Visibility: 10mi
Dew Point: 20°   Wind: 7mph
Humidity: 40%   Direction: 280°W
Pressure: 30.34"   Gusts: NA
Location:  33.1893°N, 107.211°W
Report Text: KTCS 270353Z AUTO 28006KT 10SM CLR 06/M07 A3034 RMK AO2 SLP254 T00611067 TSNO
Loading
Personal Weather Stations






























Interactive Weather Map New forecast layout! Learn more

10-Day Weather Forecast

Advertisements
Track Severe Weather on mobile